sensor_id;sensor_type;location;lat;lon;timestamp;P1;durP1;ratioP1;P2;durP2;ratioP2
72406;SDS011;60396;47.550;18.828;2023-03-14T00:00:22;11.93;;;4.10;;
72406;SDS011;60396;47.550;18.828;2023-03-14T00:02:53;10.38;;;4.50;;
72406;SDS011;60396;47.550;18.828;2023-03-14T00:05:21;11.18;;;4.00;;
72406;SDS011;60396;47.550;18.828;2023-03-14T00:07:49;10.40;;;4.07;;
72406;SDS011;60396;47.550;18.828;2023-03-14T00:10:17;11.85;;;4.70;;
72406;SDS011;60396;47.550;18.828;2023-03-14T00:12:44;15.10;;;4.60;;
72406;SDS011;60396;47.550;18.828;2023-03-14T00:15:12;11.80;;;4.07;;
72406;SDS011;60396;47.550;18.828;2023-03-14T00:17:42;11.55;;;4.40;;
72406;SDS011;60396;47.550;18.828;2023-03-14T00:20:10;12.77;;;4.43;;
72406;SDS011;60396;47.550;18.828;2023-03-14T00:22:40;10.80;;;4.55;;
72406;SDS011;60396;47.550;18.828;2023-03-14T00:25:08;12.60;;;3.37;;
72406;SDS011;60396;47.550;18.828;2023-03-14T00:27:37;12.32;;;3.92;;
72406;SDS011;60396;47.550;18.828;2023-03-14T00:30:06;11.00;;;4.00;;
72406;SDS011;60396;47.550;18.828;2023-03-14T00:32:40;9.77;;;4.10;;
72406;SDS011;60396;47.550;18.828;2023-03-14T00:35:08;11.70;;;4.25;;
72406;SDS011;60396;47.550;18.828;2023-03-14T00:37:36;9.77;;;3.93;;
72406;SDS011;60396;47.550;18.828;2023-03-14T00:40:07;11.73;;;4.50;;
72406;SDS011;60396;47.550;18.828;2023-03-14T00:42:35;13.07;;;3.97;;
72406;SDS011;60396;47.550;18.828;2023-03-14T00:45:03;11.52;;;3.75;;
72406;SDS011;60396;47.550;18.828;2023-03-14T00:47:33;9.20;;;3.83;;
72406;SDS011;60396;47.550;18.828;2023-03-14T00:50:01;9.53;;;3.30;;
72406;SDS011;60396;47.550;18.828;2023-03-14T00:52:29;8.32;;;3.22;;
72406;SDS011;60396;47.550;18.828;2023-03-14T00:54:57;9.43;;;3.47;;
72406;SDS011;60396;47.550;18.828;2023-03-14T00:57:25;9.10;;;3.60;;
72406;SDS011;60396;47.550;18.828;2023-03-14T00:59:53;10.57;;;3.60;;
72406;SDS011;60396;47.550;18.828;2023-03-14T01:02:21;10.47;;;3.80;;
72406;SDS011;60396;47.550;18.828;2023-03-14T01:04:48;8.13;;;3.35;;
72406;SDS011;60396;47.550;18.828;2023-03-14T01:07:16;9.02;;;3.30;;
72406;SDS011;60396;47.550;18.828;2023-03-14T01:09:45;10.52;;;3.40;;
72406;SDS011;60396;47.550;18.828;2023-03-14T01:12:13;7.95;;;3.33;;
72406;SDS011;60396;47.550;18.828;2023-03-14T01:14:41;9.40;;;3.50;;
72406;SDS011;60396;47.550;18.828;2023-03-14T01:17:09;10.32;;;3.83;;
72406;SDS011;60396;47.550;18.828;2023-03-14T01:19:37;11.05;;;4.40;;
72406;SDS011;60396;47.550;18.828;2023-03-14T01:22:05;11.98;;;4.50;;
72406;SDS011;60396;47.550;18.828;2023-03-14T01:24:32;10.52;;;4.10;;
72406;SDS011;60396;47.550;18.828;2023-03-14T01:27:00;12.63;;;4.27;;
72406;SDS011;60396;47.550;18.828;2023-03-14T01:29:28;11.10;;;4.53;;
72406;SDS011;60396;47.550;18.828;2023-03-14T01:31:56;11.45;;;5.00;;
72406;SDS011;60396;47.550;18.828;2023-03-14T01:34:24;9.75;;;4.25;;
72406;SDS011;60396;47.550;18.828;2023-03-14T01:36:52;11.55;;;4.87;;
72406;SDS011;60396;47.550;18.828;2023-03-14T01:39:20;11.27;;;4.50;;
72406;SDS011;60396;47.550;18.828;2023-03-14T01:41:48;9.98;;;4.25;;
72406;SDS011;60396;47.550;18.828;2023-03-14T01:44:16;11.77;;;4.87;;
72406;SDS011;60396;47.550;18.828;2023-03-14T01:46:44;11.70;;;4.82;;
72406;SDS011;60396;47.550;18.828;2023-03-14T01:49:28;11.85;;;4.90;;
72406;SDS011;60396;47.550;18.828;2023-03-14T01:52:43;11.57;;;4.83;;
72406;SDS011;60396;47.550;18.828;2023-03-14T01:54:53;11.77;;;4.93;;
72406;SDS011;60396;47.550;18.828;2023-03-14T02:00:26;12.40;;;4.65;;
72406;SDS011;60396;47.550;18.828;2023-03-14T02:02:51;10.05;;;4.22;;
72406;SDS011;60396;47.550;18.828;2023-03-14T02:05:23;9.43;;;4.10;;
72406;SDS011;60396;47.550;18.828;2023-03-14T02:07:55;14.05;;;5.37;;
72406;SDS011;60396;47.550;18.828;2023-03-14T02:10:25;10.02;;;4.10;;
72406;SDS011;60396;47.550;18.828;2023-03-14T02:12:56;11.50;;;4.40;;
72406;SDS011;60396;47.550;18.828;2023-03-14T02:15:24;10.55;;;4.37;;
72406;SDS011;60396;47.550;18.828;2023-03-14T02:17:52;12.23;;;4.30;;
72406;SDS011;60396;47.550;18.828;2023-03-14T02:22:50;11.40;;;4.25;;
72406;SDS011;60396;47.550;18.828;2023-03-14T02:28:05;10.63;;;4.03;;
72406;SDS011;60396;47.550;18.828;2023-03-14T02:30:33;8.10;;;3.40;;
72406;SDS011;60396;47.550;18.828;2023-03-14T02:35:36;9.82;;;3.80;;
72406;SDS011;60396;47.550;18.828;2023-03-14T02:41:02;11.02;;;4.28;;
72406;SDS011;60396;47.550;18.828;2023-03-14T02:43:30;11.03;;;3.23;;
72406;SDS011;60396;47.550;18.828;2023-03-14T02:45:58;9.48;;;3.55;;
72406;SDS011;60396;47.550;18.828;2023-03-14T02:48:35;11.57;;;4.05;;
72406;SDS011;60396;47.550;18.828;2023-03-14T02:51:10;10.10;;;4.05;;
72406;SDS011;60396;47.550;18.828;2023-03-14T02:53:38;10.88;;;3.78;;
72406;SDS011;60396;47.550;18.828;2023-03-14T02:56:07;9.80;;;3.80;;
72406;SDS011;60396;47.550;18.828;2023-03-14T02:58:36;9.02;;;3.50;;
72406;SDS011;60396;47.550;18.828;2023-03-14T03:01:04;8.90;;;3.30;;
72406;SDS011;60396;47.550;18.828;2023-03-14T03:03:32;10.93;;;3.83;;
72406;SDS011;60396;47.550;18.828;2023-03-14T03:06:00;8.10;;;3.62;;
72406;SDS011;60396;47.550;18.828;2023-03-14T03:08:29;10.60;;;4.17;;
72406;SDS011;60396;47.550;18.828;2023-03-14T03:10:58;11.02;;;3.72;;
72406;SDS011;60396;47.550;18.828;2023-03-14T03:13:26;10.70;;;4.25;;
72406;SDS011;60396;47.550;18.828;2023-03-14T03:15:55;12.35;;;4.53;;
72406;SDS011;60396;47.550;18.828;2023-03-14T03:18:22;10.65;;;4.47;;
72406;SDS011;60396;47.550;18.828;2023-03-14T03:20:50;9.93;;;3.97;;
72406;SDS011;60396;47.550;18.828;2023-03-14T03:23:18;10.85;;;4.43;;
72406;SDS011;60396;47.550;18.828;2023-03-14T03:25:49;14.85;;;4.60;;
72406;SDS011;60396;47.550;18.828;2023-03-14T03:28:17;9.68;;;4.30;;
72406;SDS011;60396;47.550;18.828;2023-03-14T03:30:46;10.68;;;4.07;;
72406;SDS011;60396;47.550;18.828;2023-03-14T03:33:14;11.60;;;4.57;;
72406;SDS011;60396;47.550;18.828;2023-03-14T03:35:46;11.12;;;4.60;;
72406;SDS011;60396;47.550;18.828;2023-03-14T03:38:16;12.43;;;4.35;;
72406;SDS011;60396;47.550;18.828;2023-03-14T03:40:44;11.25;;;4.00;;
72406;SDS011;60396;47.550;18.828;2023-03-14T03:43:12;11.52;;;3.70;;
72406;SDS011;60396;47.550;18.828;2023-03-14T03:45:40;16.87;;;4.13;;
72406;SDS011;60396;47.550;18.828;2023-03-14T03:48:08;11.10;;;4.50;;
72406;SDS011;60396;47.550;18.828;2023-03-14T03:50:35;12.48;;;4.25;;
72406;SDS011;60396;47.550;18.828;2023-03-14T03:53:03;10.95;;;3.42;;
72406;SDS011;60396;47.550;18.828;2023-03-14T03:55:31;10.63;;;3.78;;
72406;SDS011;60396;47.550;18.828;2023-03-14T03:57:59;9.43;;;3.90;;
72406;SDS011;60396;47.550;18.828;2023-03-14T04:00:27;9.95;;;3.95;;
72406;SDS011;60396;47.550;18.828;2023-03-14T04:02:55;10.95;;;4.45;;
72406;SDS011;60396;47.550;18.828;2023-03-14T04:05:22;10.18;;;4.22;;
72406;SDS011;60396;47.550;18.828;2023-03-14T04:07:51;11.25;;;4.40;;
72406;SDS011;60396;47.550;18.828;2023-03-14T04:10:19;11.57;;;4.17;;
72406;SDS011;60396;47.550;18.828;2023-03-14T04:12:47;10.30;;;4.18;;
72406;SDS011;60396;47.550;18.828;2023-03-14T04:15:16;9.35;;;3.92;;
72406;SDS011;60396;47.550;18.828;2023-03-14T04:17:44;11.02;;;3.70;;
72406;SDS011;60396;47.550;18.828;2023-03-14T04:20:16;8.75;;;3.75;;
72406;SDS011;60396;47.550;18.828;2023-03-14T04:22:44;9.83;;;3.70;;
72406;SDS011;60396;47.550;18.828;2023-03-14T04:25:11;11.75;;;3.92;;
72406;SDS011;60396;47.550;18.828;2023-03-14T04:27:40;11.10;;;3.92;;
72406;SDS011;60396;47.550;18.828;2023-03-14T04:30:08;12.43;;;3.55;;
72406;SDS011;60396;47.550;18.828;2023-03-14T04:32:40;10.18;;;3.67;;
72406;SDS011;60396;47.550;18.828;2023-03-14T04:35:08;10.80;;;3.53;;
72406;SDS011;60396;47.550;18.828;2023-03-14T04:37:36;9.18;;;3.20;;
72406;SDS011;60396;47.550;18.828;2023-03-14T04:40:06;10.50;;;3.80;;
72406;SDS011;60396;47.550;18.828;2023-03-14T04:42:34;9.10;;;3.50;;
72406;SDS011;60396;47.550;18.828;2023-03-14T04:45:02;9.80;;;3.22;;
72406;SDS011;60396;47.550;18.828;2023-03-14T04:47:30;10.30;;;3.10;;
72406;SDS011;60396;47.550;18.828;2023-03-14T04:49:59;9.73;;;3.33;;
72406;SDS011;60396;47.550;18.828;2023-03-14T04:52:26;9.77;;;3.10;;
72406;SDS011;60396;47.550;18.828;2023-03-14T04:54:54;12.18;;;3.10;;
72406;SDS011;60396;47.550;18.828;2023-03-14T04:57:22;11.05;;;3.65;;
72406;SDS011;60396;47.550;18.828;2023-03-14T04:59:51;8.30;;;2.80;;
72406;SDS011;60396;47.550;18.828;2023-03-14T05:02:20;11.00;;;2.75;;
72406;SDS011;60396;47.550;18.828;2023-03-14T05:04:48;8.43;;;2.67;;
72406;SDS011;60396;47.550;18.828;2023-03-14T05:07:16;9.55;;;3.25;;
72406;SDS011;60396;47.550;18.828;2023-03-14T05:09:46;9.15;;;2.85;;
72406;SDS011;60396;47.550;18.828;2023-03-14T05:12:15;9.63;;;2.80;;
72406;SDS011;60396;47.550;18.828;2023-03-14T05:14:44;8.25;;;2.83;;
72406;SDS011;60396;47.550;18.828;2023-03-14T05:17:12;8.30;;;2.53;;
72406;SDS011;60396;47.550;18.828;2023-03-14T05:19:43;10.73;;;3.50;;
72406;SDS011;60396;47.550;18.828;2023-03-14T05:22:10;13.05;;;3.20;;
72406;SDS011;60396;47.550;18.828;2023-03-14T05:24:39;8.67;;;3.63;;
72406;SDS011;60396;47.550;18.828;2023-03-14T05:27:07;9.40;;;3.37;;
72406;SDS011;60396;47.550;18.828;2023-03-14T05:29:35;8.02;;;2.90;;
72406;SDS011;60396;47.550;18.828;2023-03-14T05:32:03;9.80;;;3.12;;
72406;SDS011;60396;47.550;18.828;2023-03-14T05:34:31;8.85;;;2.83;;
72406;SDS011;60396;47.550;18.828;2023-03-14T05:37:00;9.50;;;3.40;;
72406;SDS011;60396;47.550;18.828;2023-03-14T05:39:30;11.00;;;3.08;;
72406;SDS011;60396;47.550;18.828;2023-03-14T05:41:59;10.25;;;3.03;;
72406;SDS011;60396;47.550;18.828;2023-03-14T05:44:27;8.00;;;3.15;;
72406;SDS011;60396;47.550;18.828;2023-03-14T05:46:54;8.25;;;3.17;;
72406;SDS011;60396;47.550;18.828;2023-03-14T05:49:22;10.23;;;3.10;;
72406;SDS011;60396;47.550;18.828;2023-03-14T05:51:50;13.30;;;3.50;;
72406;SDS011;60396;47.550;18.828;2023-03-14T05:54:18;10.05;;;3.25;;
72406;SDS011;60396;47.550;18.828;2023-03-14T05:56:46;9.10;;;2.78;;
72406;SDS011;60396;47.550;18.828;2023-03-14T05:59:14;8.50;;;2.92;;
72406;SDS011;60396;47.550;18.828;2023-03-14T06:01:42;9.67;;;3.30;;
72406;SDS011;60396;47.550;18.828;2023-03-14T06:04:10;9.32;;;3.05;;
72406;SDS011;60396;47.550;18.828;2023-03-14T06:06:38;9.18;;;3.08;;
72406;SDS011;60396;47.550;18.828;2023-03-14T06:09:06;9.32;;;2.67;;
72406;SDS011;60396;47.550;18.828;2023-03-14T06:11:35;11.05;;;2.75;;
72406;SDS011;60396;47.550;18.828;2023-03-14T06:14:03;10.67;;;2.93;;
72406;SDS011;60396;47.550;18.828;2023-03-14T06:16:30;7.75;;;2.60;;
72406;SDS011;60396;47.550;18.828;2023-03-14T06:19:00;9.48;;;3.62;;
72406;SDS011;60396;47.550;18.828;2023-03-14T06:21:28;8.13;;;2.72;;
72406;SDS011;60396;47.550;18.828;2023-03-14T06:23:55;9.55;;;3.22;;
72406;SDS011;60396;47.550;18.828;2023-03-14T06:26:24;10.83;;;3.10;;
72406;SDS011;60396;47.550;18.828;2023-03-14T06:28:52;8.27;;;2.87;;
72406;SDS011;60396;47.550;18.828;2023-03-14T06:31:21;9.70;;;2.85;;
72406;SDS011;60396;47.550;18.828;2023-03-14T06:33:49;9.90;;;3.33;;
72406;SDS011;60396;47.550;18.828;2023-03-14T06:36:17;11.57;;;3.40;;
72406;SDS011;60396;47.550;18.828;2023-03-14T06:38:45;9.30;;;2.63;;
72406;SDS011;60396;47.550;18.828;2023-03-14T06:41:13;11.10;;;2.87;;
72406;SDS011;60396;47.550;18.828;2023-03-14T06:43:41;9.90;;;2.67;;
72406;SDS011;60396;47.550;18.828;2023-03-14T06:46:09;12.52;;;3.42;;
72406;SDS011;60396;47.550;18.828;2023-03-14T06:48:38;9.15;;;3.22;;
72406;SDS011;60396;47.550;18.828;2023-03-14T06:51:06;10.10;;;3.30;;
72406;SDS011;60396;47.550;18.828;2023-03-14T06:53:34;10.52;;;3.47;;
72406;SDS011;60396;47.550;18.828;2023-03-14T06:56:02;10.77;;;3.40;;
72406;SDS011;60396;47.550;18.828;2023-03-14T06:58:31;11.55;;;3.42;;
72406;SDS011;60396;47.550;18.828;2023-03-14T07:00:59;11.75;;;4.03;;
72406;SDS011;60396;47.550;18.828;2023-03-14T07:03:28;19.80;;;4.30;;
72406;SDS011;60396;47.550;18.828;2023-03-14T07:05:56;12.98;;;3.40;;
72406;SDS011;60396;47.550;18.828;2023-03-14T07:08:23;11.75;;;3.17;;
72406;SDS011;60396;47.550;18.828;2023-03-14T07:10:51;10.75;;;3.70;;
72406;SDS011;60396;47.550;18.828;2023-03-14T07:13:19;9.40;;;3.25;;
72406;SDS011;60396;47.550;18.828;2023-03-14T07:15:47;9.37;;;3.33;;
72406;SDS011;60396;47.550;18.828;2023-03-14T07:18:15;8.95;;;3.62;;
72406;SDS011;60396;47.550;18.828;2023-03-14T07:20:45;9.98;;;3.28;;
72406;SDS011;60396;47.550;18.828;2023-03-14T07:23:13;8.98;;;3.15;;
72406;SDS011;60396;47.550;18.828;2023-03-14T07:25:42;11.05;;;3.75;;
72406;SDS011;60396;47.550;18.828;2023-03-14T07:28:09;11.90;;;3.40;;
72406;SDS011;60396;47.550;18.828;2023-03-14T07:30:37;9.68;;;3.25;;
72406;SDS011;60396;47.550;18.828;2023-03-14T07:33:09;9.57;;;3.12;;
72406;SDS011;60396;47.550;18.828;2023-03-14T07:35:38;9.75;;;3.58;;
72406;SDS011;60396;47.550;18.828;2023-03-14T07:38:05;15.65;;;3.03;;
72406;SDS011;60396;47.550;18.828;2023-03-14T07:40:34;8.60;;;3.13;;
72406;SDS011;60396;47.550;18.828;2023-03-14T07:43:02;12.75;;;2.85;;
72406;SDS011;60396;47.550;18.828;2023-03-14T07:45:34;7.65;;;2.90;;
72406;SDS011;60396;47.550;18.828;2023-03-14T07:48:09;8.40;;;2.50;;
72406;SDS011;60396;47.550;18.828;2023-03-14T07:50:37;7.75;;;2.40;;
72406;SDS011;60396;47.550;18.828;2023-03-14T07:53:04;13.90;;;3.07;;
72406;SDS011;60396;47.550;18.828;2023-03-14T07:55:32;10.38;;;3.05;;
72406;SDS011;60396;47.550;18.828;2023-03-14T07:58:00;9.50;;;3.28;;
72406;SDS011;60396;47.550;18.828;2023-03-14T08:00:28;12.27;;;3.17;;
72406;SDS011;60396;47.550;18.828;2023-03-14T08:02:55;9.43;;;2.62;;
72406;SDS011;60396;47.550;18.828;2023-03-14T08:05:23;9.70;;;2.90;;
72406;SDS011;60396;47.550;18.828;2023-03-14T08:07:51;7.53;;;2.58;;
72406;SDS011;60396;47.550;18.828;2023-03-14T08:10:19;8.38;;;2.67;;
72406;SDS011;60396;47.550;18.828;2023-03-14T08:12:56;8.70;;;2.90;;
72406;SDS011;60396;47.550;18.828;2023-03-14T08:15:25;11.77;;;2.85;;
72406;SDS011;60396;47.550;18.828;2023-03-14T08:17:53;8.37;;;2.70;;
72406;SDS011;60396;47.550;18.828;2023-03-14T08:20:22;8.95;;;3.15;;
72406;SDS011;60396;47.550;18.828;2023-03-14T08:22:51;9.02;;;3.03;;
72406;SDS011;60396;47.550;18.828;2023-03-14T08:25:19;8.23;;;2.75;;
72406;SDS011;60396;47.550;18.828;2023-03-14T08:27:46;12.60;;;3.30;;
72406;SDS011;60396;47.550;18.828;2023-03-14T08:30:15;8.73;;;3.30;;
72406;SDS011;60396;47.550;18.828;2023-03-14T08:32:43;14.82;;;3.28;;
72406;SDS011;60396;47.550;18.828;2023-03-14T08:35:11;10.60;;;3.30;;
72406;SDS011;60396;47.550;18.828;2023-03-14T08:37:39;11.77;;;3.10;;
72406;SDS011;60396;47.550;18.828;2023-03-14T08:40:09;9.80;;;2.90;;
72406;SDS011;60396;47.550;18.828;2023-03-14T08:42:37;6.80;;;2.40;;
72406;SDS011;60396;47.550;18.828;2023-03-14T08:45:07;7.28;;;2.12;;
72406;SDS011;60396;47.550;18.828;2023-03-14T08:47:35;8.35;;;2.42;;
72406;SDS011;60396;47.550;18.828;2023-03-14T08:50:04;10.25;;;3.00;;
72406;SDS011;60396;47.550;18.828;2023-03-14T08:52:35;11.63;;;3.85;;
72406;SDS011;60396;47.550;18.828;2023-03-14T08:55:04;12.20;;;3.77;;
72406;SDS011;60396;47.550;18.828;2023-03-14T08:57:33;8.55;;;2.95;;
72406;SDS011;60396;47.550;18.828;2023-03-14T09:00:03;10.68;;;2.53;;
72406;SDS011;60396;47.550;18.828;2023-03-14T09:02:39;7.57;;;2.47;;
72406;SDS011;60396;47.550;18.828;2023-03-14T09:05:07;7.53;;;2.30;;
72406;SDS011;60396;47.550;18.828;2023-03-14T09:07:35;9.37;;;2.30;;
72406;SDS011;60396;47.550;18.828;2023-03-14T09:10:04;7.47;;;1.85;;
72406;SDS011;60396;47.550;18.828;2023-03-14T09:12:33;8.48;;;2.75;;
72406;SDS011;60396;47.550;18.828;2023-03-14T09:15:01;7.22;;;2.40;;
72406;SDS011;60396;47.550;18.828;2023-03-14T09:17:30;7.60;;;2.25;;
72406;SDS011;60396;47.550;18.828;2023-03-14T09:20:00;6.77;;;2.00;;
72406;SDS011;60396;47.550;18.828;2023-03-14T09:22:34;6.57;;;2.20;;
72406;SDS011;60396;47.550;18.828;2023-03-14T09:25:03;7.57;;;2.20;;
72406;SDS011;60396;47.550;18.828;2023-03-14T09:27:31;9.00;;;2.70;;
72406;SDS011;60396;47.550;18.828;2023-03-14T09:29:59;7.45;;;2.30;;
72406;SDS011;60396;47.550;18.828;2023-03-14T09:32:27;7.57;;;2.17;;
72406;SDS011;60396;47.550;18.828;2023-03-14T09:34:55;6.95;;;2.20;;
72406;SDS011;60396;47.550;18.828;2023-03-14T09:37:23;7.28;;;2.30;;
72406;SDS011;60396;47.550;18.828;2023-03-14T09:39:51;7.90;;;2.30;;
72406;SDS011;60396;47.550;18.828;2023-03-14T09:42:20;6.72;;;1.67;;
72406;SDS011;60396;47.550;18.828;2023-03-14T09:44:57;7.60;;;1.70;;
72406;SDS011;60396;47.550;18.828;2023-03-14T09:47:27;7.22;;;2.25;;
72406;SDS011;60396;47.550;18.828;2023-03-14T09:49:59;8.10;;;1.83;;
72406;SDS011;60396;47.550;18.828;2023-03-14T09:52:32;7.60;;;1.05;;
72406;SDS011;60396;47.550;18.828;2023-03-14T09:55:03;4.70;;;1.08;;
72406;SDS011;60396;47.550;18.828;2023-03-14T09:57:33;4.83;;;0.67;;
72406;SDS011;60396;47.550;18.828;2023-03-14T10:00:09;7.35;;;1.35;;
72406;SDS011;60396;47.550;18.828;2023-03-14T10:02:51;3.70;;;0.65;;
72406;SDS011;60396;47.550;18.828;2023-03-14T10:05:21;8.27;;;1.10;;
72406;SDS011;60396;47.550;18.828;2023-03-14T10:07:50;8.38;;;1.02;;
72406;SDS011;60396;47.550;18.828;2023-03-14T10:10:19;5.30;;;0.70;;
72406;SDS011;60396;47.550;18.828;2023-03-14T10:12:56;2.90;;;0.40;;
72406;SDS011;60396;47.550;18.828;2023-03-14T10:15:35;5.32;;;0.60;;
72406;SDS011;60396;47.550;18.828;2023-03-14T10:18:04;4.87;;;0.65;;
72406;SDS011;60396;47.550;18.828;2023-03-14T10:25:41;5.53;;;0.62;;
72406;SDS011;60396;47.550;18.828;2023-03-14T10:28:24;7.62;;;0.70;;
72406;SDS011;60396;47.550;18.828;2023-03-14T10:30:55;6.57;;;0.85;;
72406;SDS011;60396;47.550;18.828;2023-03-14T10:33:25;9.00;;;1.17;;
72406;SDS011;60396;47.550;18.828;2023-03-14T10:38:47;4.68;;;0.98;;
72406;SDS011;60396;47.550;18.828;2023-03-14T10:41:16;3.83;;;0.40;;
72406;SDS011;60396;47.550;18.828;2023-03-14T10:44:02;9.93;;;1.02;;
72406;SDS011;60396;47.550;18.828;2023-03-14T10:46:30;4.18;;;0.80;;
72406;SDS011;60396;47.550;18.828;2023-03-14T10:52:25;5.35;;;1.30;;
72406;SDS011;60396;47.550;18.828;2023-03-14T10:55:14;8.25;;;0.85;;
72406;SDS011;60396;47.550;18.828;2023-03-14T10:57:43;5.65;;;0.62;;
72406;SDS011;60396;47.550;18.828;2023-03-14T11:00:15;2.92;;;0.50;;
72406;SDS011;60396;47.550;18.828;2023-03-14T11:05:41;5.35;;;0.70;;
72406;SDS011;60396;47.550;18.828;2023-03-14T11:08:15;4.50;;;0.60;;
72406;SDS011;60396;47.550;18.828;2023-03-14T11:10:57;8.50;;;0.60;;
72406;SDS011;60396;47.550;18.828;2023-03-14T11:13:38;7.68;;;0.60;;
72406;SDS011;60396;47.550;18.828;2023-03-14T11:16:22;3.50;;;0.50;;
72406;SDS011;60396;47.550;18.828;2023-03-14T11:21:32;3.22;;;0.50;;
72406;SDS011;60396;47.550;18.828;2023-03-14T11:30:05;3.67;;;0.70;;
72406;SDS011;60396;47.550;18.828;2023-03-14T11:32:44;5.37;;;1.00;;
72406;SDS011;60396;47.550;18.828;2023-03-14T11:37:52;4.45;;;0.60;;
72406;SDS011;60396;47.550;18.828;2023-03-14T11:40:24;3.15;;;0.62;;
72406;SDS011;60396;47.550;18.828;2023-03-14T11:45:47;11.05;;;0.55;;
72406;SDS011;60396;47.550;18.828;2023-03-14T11:48:19;3.80;;;0.70;;
72406;SDS011;60396;47.550;18.828;2023-03-14T11:50:54;3.47;;;0.60;;
72406;SDS011;60396;47.550;18.828;2023-03-14T11:53:41;7.65;;;0.80;;
72406;SDS011;60396;47.550;18.828;2023-03-14T11:59:16;4.00;;;1.10;;
72406;SDS011;60396;47.550;18.828;2023-03-14T12:01:52;2.87;;;0.47;;
72406;SDS011;60396;47.550;18.828;2023-03-14T12:04:46;4.22;;;0.82;;
72406;SDS011;60396;47.550;18.828;2023-03-14T12:08:02;6.07;;;1.00;;
72406;SDS011;60396;47.550;18.828;2023-03-14T12:13:17;4.07;;;0.70;;
72406;SDS011;60396;47.550;18.828;2023-03-14T12:15:49;3.95;;;0.70;;
72406;SDS011;60396;47.550;18.828;2023-03-14T12:18:31;6.50;;;0.65;;
72406;SDS011;60396;47.550;18.828;2023-03-14T12:21:11;4.05;;;0.62;;
72406;SDS011;60396;47.550;18.828;2023-03-14T12:23:49;4.47;;;1.03;;
72406;SDS011;60396;47.550;18.828;2023-03-14T12:28:50;5.10;;;0.88;;
72406;SDS011;60396;47.550;18.828;2023-03-14T12:36:51;6.17;;;0.90;;
72406;SDS011;60396;47.550;18.828;2023-03-14T12:45:15;2.92;;;0.80;;
72406;SDS011;60396;47.550;18.828;2023-03-14T12:47:57;7.85;;;0.73;;
72406;SDS011;60396;47.550;18.828;2023-03-14T12:50:35;5.10;;;0.97;;
72406;SDS011;60396;47.550;18.828;2023-03-14T13:01:40;4.05;;;0.77;;
72406;SDS011;60396;47.550;18.828;2023-03-14T13:04:14;4.77;;;0.90;;
72406;SDS011;60396;47.550;18.828;2023-03-14T13:06:50;4.07;;;0.70;;
72406;SDS011;60396;47.550;18.828;2023-03-14T13:12:11;4.15;;;0.68;;
72406;SDS011;60396;47.550;18.828;2023-03-14T13:14:43;4.10;;;1.02;;
72406;SDS011;60396;47.550;18.828;2023-03-14T13:17:12;5.77;;;0.80;;
72406;SDS011;60396;47.550;18.828;2023-03-14T13:20:05;6.37;;;1.05;;
72406;SDS011;60396;47.550;18.828;2023-03-14T13:22:39;5.35;;;1.10;;
72406;SDS011;60396;47.550;18.828;2023-03-14T13:25:14;6.40;;;0.82;;
72406;SDS011;60396;47.550;18.828;2023-03-14T13:27:44;5.25;;;0.88;;
72406;SDS011;60396;47.550;18.828;2023-03-14T13:30:20;6.03;;;0.90;;
72406;SDS011;60396;47.550;18.828;2023-03-14T13:32:51;3.85;;;0.90;;
72406;SDS011;60396;47.550;18.828;2023-03-14T13:37:54;7.03;;;1.45;;
72406;SDS011;60396;47.550;18.828;2023-03-14T13:40:37;5.85;;;1.30;;
72406;SDS011;60396;47.550;18.828;2023-03-14T13:43:10;7.03;;;1.93;;
72406;SDS011;60396;47.550;18.828;2023-03-14T13:46:22;6.72;;;1.40;;
72406;SDS011;60396;47.550;18.828;2023-03-14T13:49:04;6.05;;;1.35;;
72406;SDS011;60396;47.550;18.828;2023-03-14T13:51:33;12.65;;;1.40;;
72406;SDS011;60396;47.550;18.828;2023-03-14T13:54:02;6.95;;;1.25;;
72406;SDS011;60396;47.550;18.828;2023-03-14T13:56:32;8.70;;;1.63;;
72406;SDS011;60396;47.550;18.828;2023-03-14T13:59:01;6.90;;;1.40;;
72406;SDS011;60396;47.550;18.828;2023-03-14T14:01:29;5.28;;;1.42;;
72406;SDS011;60396;47.550;18.828;2023-03-14T14:04:14;10.60;;;2.87;;
72406;SDS011;60396;47.550;18.828;2023-03-14T14:06:46;10.55;;;2.80;;
72406;SDS011;60396;47.550;18.828;2023-03-14T14:09:43;7.60;;;1.50;;
72406;SDS011;60396;47.550;18.828;2023-03-14T14:12:17;9.68;;;2.30;;
72406;SDS011;60396;47.550;18.828;2023-03-14T14:15:04;11.05;;;2.65;;
72406;SDS011;60396;47.550;18.828;2023-03-14T14:20:44;5.87;;;1.45;;
72406;SDS011;60396;47.550;18.828;2023-03-14T14:23:24;8.83;;;2.53;;
72406;SDS011;60396;47.550;18.828;2023-03-14T14:25:58;8.27;;;1.98;;
72406;SDS011;60396;47.550;18.828;2023-03-14T14:28:31;4.93;;;1.10;;
72406;SDS011;60396;47.550;18.828;2023-03-14T14:33:58;7.93;;;1.37;;
72406;SDS011;60396;47.550;18.828;2023-03-14T14:39:01;6.85;;;1.17;;
72406;SDS011;60396;47.550;18.828;2023-03-14T14:41:35;3.92;;;1.02;;
72406;SDS011;60396;47.550;18.828;2023-03-14T14:44:07;6.40;;;1.00;;
72406;SDS011;60396;47.550;18.828;2023-03-14T14:46:35;3.72;;;1.00;;
72406;SDS011;60396;47.550;18.828;2023-03-14T14:49:06;5.47;;;1.17;;
72406;SDS011;60396;47.550;18.828;2023-03-14T14:51:41;6.97;;;1.60;;
72406;SDS011;60396;47.550;18.828;2023-03-14T14:54:11;8.18;;;1.50;;
72406;SDS011;60396;47.550;18.828;2023-03-14T14:56:45;7.05;;;1.40;;
72406;SDS011;60396;47.550;18.828;2023-03-14T14:59:18;6.82;;;1.45;;
72406;SDS011;60396;47.550;18.828;2023-03-14T15:01:59;8.13;;;1.57;;
72406;SDS011;60396;47.550;18.828;2023-03-14T15:04:31;7.60;;;1.60;;
72406;SDS011;60396;47.550;18.828;2023-03-14T15:06:59;12.82;;;1.70;;
72406;SDS011;60396;47.550;18.828;2023-03-14T15:09:27;7.12;;;1.35;;
72406;SDS011;60396;47.550;18.828;2023-03-14T15:11:55;13.38;;;1.80;;
72406;SDS011;60396;47.550;18.828;2023-03-14T15:14:23;13.73;;;1.90;;
72406;SDS011;60396;47.550;18.828;2023-03-14T15:16:50;6.43;;;1.60;;
72406;SDS011;60396;47.550;18.828;2023-03-14T15:19:23;6.75;;;2.17;;
72406;SDS011;60396;47.550;18.828;2023-03-14T15:21:52;7.72;;;2.10;;
72406;SDS011;60396;47.550;18.828;2023-03-14T15:24:21;8.43;;;2.20;;
72406;SDS011;60396;47.550;18.828;2023-03-14T15:26:49;7.10;;;1.97;;
72406;SDS011;60396;47.550;18.828;2023-03-14T15:29:17;10.45;;;1.60;;
72406;SDS011;60396;47.550;18.828;2023-03-14T15:31:44;6.43;;;1.25;;
72406;SDS011;60396;47.550;18.828;2023-03-14T15:34:12;5.85;;;1.40;;
72406;SDS011;60396;47.550;18.828;2023-03-14T15:36:40;4.50;;;1.20;;
72406;SDS011;60396;47.550;18.828;2023-03-14T15:39:09;7.87;;;1.47;;
72406;SDS011;60396;47.550;18.828;2023-03-14T15:41:38;7.35;;;2.40;;
72406;SDS011;60396;47.550;18.828;2023-03-14T15:44:06;9.27;;;2.35;;
72406;SDS011;60396;47.550;18.828;2023-03-14T15:46:34;8.60;;;2.08;;
72406;SDS011;60396;47.550;18.828;2023-03-14T15:49:02;5.87;;;1.33;;
72406;SDS011;60396;47.550;18.828;2023-03-14T15:51:30;6.73;;;1.50;;
72406;SDS011;60396;47.550;18.828;2023-03-14T15:53:57;7.57;;;1.45;;
72406;SDS011;60396;47.550;18.828;2023-03-14T15:56:25;8.50;;;1.50;;
72406;SDS011;60396;47.550;18.828;2023-03-14T15:58:55;7.03;;;1.27;;
72406;SDS011;60396;47.550;18.828;2023-03-14T16:01:23;7.20;;;1.10;;
72406;SDS011;60396;47.550;18.828;2023-03-14T16:03:51;8.20;;;1.40;;
72406;SDS011;60396;47.550;18.828;2023-03-14T16:06:19;6.43;;;1.33;;
72406;SDS011;60396;47.550;18.828;2023-03-14T16:08:47;7.95;;;1.77;;
72406;SDS011;60396;47.550;18.828;2023-03-14T16:11:15;12.50;;;2.20;;
72406;SDS011;60396;47.550;18.828;2023-03-14T16:13:48;7.75;;;1.83;;